sensor_id;sensor_type;location;lat;lon;timestamp;pressure;altitude;pressure_sealevel;temperature;humidity
21574;BME280;10948;48.706;9.258;2023-03-13T00:01:38;97359.13;;;5.24;100.00
21574;BME280;10948;48.706;9.258;2023-03-13T00:04:04;97365.88;;;5.27;100.00
21574;BME280;10948;48.706;9.258;2023-03-13T00:06:30;97361.47;;;5.10;100.00
21574;BME280;10948;48.706;9.258;2023-03-13T00:08:57;97361.75;;;5.04;100.00
21574;BME280;10948;48.706;9.258;2023-03-13T00:11:24;97356.97;;;5.15;100.00
21574;BME280;10948;48.706;9.258;2023-03-13T00:13:52;97352.44;;;5.20;100.00
21574;BME280;10948;48.706;9.258;2023-03-13T00:16:18;97363.03;;;5.33;100.00
21574;BME280;10948;48.706;9.258;2023-03-13T00:18:46;97349.59;;;5.26;100.00
21574;BME280;10948;48.706;9.258;2023-03-13T00:21:12;97346.22;;;5.24;100.00
21574;BME280;10948;48.706;9.258;2023-03-13T00:23:38;97345.25;;;5.45;100.00
21574;BME280;10948;48.706;9.258;2023-03-13T00:26:05;97342.47;;;5.50;100.00
21574;BME280;10948;48.706;9.258;2023-03-13T00:28:31;97346.91;;;5.46;100.00
21574;BME280;10948;48.706;9.258;2023-03-13T00:31:06;97353.88;;;5.63;100.00
21574;BME280;10948;48.706;9.258;2023-03-13T00:33:33;97348.31;;;5.53;100.00
21574;BME280;10948;48.706;9.258;2023-03-13T00:35:59;97347.56;;;5.68;100.00
21574;BME280;10948;48.706;9.258;2023-03-13T00:38:24;97350.53;;;5.42;100.00
21574;BME280;10948;48.706;9.258;2023-03-13T00:40:57;97347.75;;;5.28;100.00
21574;BME280;10948;48.706;9.258;2023-03-13T00:43:22;97339.81;;;5.51;100.00
21574;BME280;10948;48.706;9.258;2023-03-13T00:45:47;97342.16;;;5.56;100.00
21574;BME280;10948;48.706;9.258;2023-03-13T00:48:12;97337.94;;;5.72;100.00
21574;BME280;10948;48.706;9.258;2023-03-13T00:50:37;97342.75;;;5.61;100.00
21574;BME280;10948;48.706;9.258;2023-03-13T00:53:03;97339.03;;;5.49;100.00
21574;BME280;10948;48.706;9.258;2023-03-13T00:55:28;97335.00;;;5.44;100.00
21574;BME280;10948;48.706;9.258;2023-03-13T00:57:53;97333.00;;;5.67;100.00
21574;BME280;10948;48.706;9.258;2023-03-13T01:00:18;97327.97;;;5.64;100.00
21574;BME280;10948;48.706;9.258;2023-03-13T01:02:44;97327.03;;;5.48;100.00
21574;BME280;10948;48.706;9.258;2023-03-13T01:05:09;97320.78;;;5.71;100.00
21574;BME280;10948;48.706;9.258;2023-03-13T01:07:34;97317.97;;;5.75;100.00
21574;BME280;10948;48.706;9.258;2023-03-13T01:09:59;97311.00;;;5.77;100.00
21574;BME280;10948;48.706;9.258;2023-03-13T01:12:24;97304.59;;;5.86;100.00
21574;BME280;10948;48.706;9.258;2023-03-13T01:14:50;97297.19;;;5.78;100.00
21574;BME280;10948;48.706;9.258;2023-03-13T01:17:15;97297.00;;;5.83;100.00
21574;BME280;10948;48.706;9.258;2023-03-13T01:19:40;97285.34;;;5.74;100.00
21574;BME280;10948;48.706;9.258;2023-03-13T01:22:05;97286.00;;;5.79;100.00
21574;BME280;10948;48.706;9.258;2023-03-13T01:24:35;97275.00;;;5.74;100.00
21574;BME280;10948;48.706;9.258;2023-03-13T01:27:00;97277.78;;;6.05;100.00
21574;BME280;10948;48.706;9.258;2023-03-13T01:29:25;97272.31;;;6.11;100.00
21574;BME280;10948;48.706;9.258;2023-03-13T01:31:50;97266.69;;;6.03;100.00
21574;BME280;10948;48.706;9.258;2023-03-13T01:34:16;97262.97;;;5.92;100.00
21574;BME280;10948;48.706;9.258;2023-03-13T01:36:41;97265.25;;;5.81;100.00
21574;BME280;10948;48.706;9.258;2023-03-13T01:39:07;97259.25;;;5.80;100.00
21574;BME280;10948;48.706;9.258;2023-03-13T01:41:33;97259.25;;;5.80;100.00
21574;BME280;10948;48.706;9.258;2023-03-13T01:43:58;97255.28;;;5.73;100.00
21574;BME280;10948;48.706;9.258;2023-03-13T01:46:29;97243.88;;;5.77;100.00
21574;BME280;10948;48.706;9.258;2023-03-13T01:48:59;97239.09;;;5.70;100.00
21574;BME280;10948;48.706;9.258;2023-03-13T01:51:34;97238.38;;;6.02;100.00
21574;BME280;10948;48.706;9.258;2023-03-13T01:54:12;97224.91;;;6.12;100.00
21574;BME280;10948;48.706;9.258;2023-03-13T01:56:44;97221.28;;;6.32;100.00
21574;BME280;10948;48.706;9.258;2023-03-13T01:59:13;97219.28;;;6.21;100.00
21574;BME280;10948;48.706;9.258;2023-03-13T02:01:40;97210.41;;;6.10;100.00
21574;BME280;10948;48.706;9.258;2023-03-13T02:04:06;97201.06;;;6.07;100.00
21574;BME280;10948;48.706;9.258;2023-03-13T02:06:32;97199.09;;;5.95;100.00
21574;BME280;10948;48.706;9.258;2023-03-13T02:09:11;97197.13;;;6.00;100.00
21574;BME280;10948;48.706;9.258;2023-03-13T02:14:06;97191.50;;;6.42;100.00
21574;BME280;10948;48.706;9.258;2023-03-13T02:16:32;97180.75;;;6.17;100.00
21574;BME280;10948;48.706;9.258;2023-03-13T02:18:58;97187.91;;;6.44;100.00
21574;BME280;10948;48.706;9.258;2023-03-13T02:21:34;97190.16;;;6.35;100.00
21574;BME280;10948;48.706;9.258;2023-03-13T02:26:44;97185.47;;;6.41;100.00
21574;BME280;10948;48.706;9.258;2023-03-13T02:29:09;97183.22;;;6.35;100.00
21574;BME280;10948;48.706;9.258;2023-03-13T02:31:42;97185.47;;;6.41;100.00
21574;BME280;10948;48.706;9.258;2023-03-13T02:34:07;97178.53;;;6.26;100.00
21574;BME280;10948;48.706;9.258;2023-03-13T02:36:33;97174.66;;;6.35;100.00
21574;BME280;10948;48.706;9.258;2023-03-13T02:38:59;97175.03;;;6.27;100.00
21574;BME280;10948;48.706;9.258;2023-03-13T02:41:26;97168.44;;;6.37;100.00
21574;BME280;10948;48.706;9.258;2023-03-13T02:43:52;97166.16;;;6.48;100.00
21574;BME280;10948;48.706;9.258;2023-03-13T02:46:18;97165.16;;;6.51;100.00
21574;BME280;10948;48.706;9.258;2023-03-13T02:48:45;97160.47;;;6.42;100.00
21574;BME280;10948;48.706;9.258;2023-03-13T02:53:52;97144.13;;;6.41;100.00
21574;BME280;10948;48.706;9.258;2023-03-13T02:56:19;97144.97;;;6.42;100.00
21574;BME280;10948;48.706;9.258;2023-03-13T02:58:45;97139.16;;;6.38;100.00
21574;BME280;10948;48.706;9.258;2023-03-13T03:01:10;97130.72;;;6.50;100.00
21574;BME280;10948;48.706;9.258;2023-03-13T03:03:36;97130.88;;;6.63;100.00
21574;BME280;10948;48.706;9.258;2023-03-13T03:06:02;97123.13;;;6.78;100.00
21574;BME280;10948;48.706;9.258;2023-03-13T03:08:27;97118.94;;;6.91;100.00
21574;BME280;10948;48.706;9.258;2023-03-13T03:10:53;97107.03;;;6.89;100.00
21574;BME280;10948;48.706;9.258;2023-03-13T03:13:18;97101.94;;;6.72;100.00
21574;BME280;10948;48.706;9.258;2023-03-13T03:15:43;97095.38;;;6.66;100.00
21574;BME280;10948;48.706;9.258;2023-03-13T03:18:08;97097.09;;;6.66;100.00
21574;BME280;10948;48.706;9.258;2023-03-13T03:20:34;97086.69;;;6.67;100.00
21574;BME280;10948;48.706;9.258;2023-03-13T03:22:59;97087.09;;;6.75;100.00
21574;BME280;10948;48.706;9.258;2023-03-13T03:25:24;97093.44;;;6.70;100.00
21574;BME280;10948;48.706;9.258;2023-03-13T03:27:49;97085.44;;;6.74;100.00
21574;BME280;10948;48.706;9.258;2023-03-13T03:30:15;97082.84;;;6.59;100.00
21574;BME280;10948;48.706;9.258;2023-03-13T03:32:40;97079.28;;;6.61;100.00
21574;BME280;10948;48.706;9.258;2023-03-13T03:35:05;97078.28;;;6.64;100.00
21574;BME280;10948;48.706;9.258;2023-03-13T03:37:31;97073.44;;;6.73;100.00
21574;BME280;10948;48.706;9.258;2023-03-13T03:39:56;97066.59;;;6.72;100.00
21574;BME280;10948;48.706;9.258;2023-03-13T03:42:21;97063.03;;;6.59;100.00
21574;BME280;10948;48.706;9.258;2023-03-13T03:44:46;97070.84;;;6.73;100.00
21574;BME280;10948;48.706;9.258;2023-03-13T03:47:11;97069.25;;;6.71;100.00
21574;BME280;10948;48.706;9.258;2023-03-13T03:49:37;97067.34;;;6.74;100.00
21574;BME280;10948;48.706;9.258;2023-03-13T03:52:02;97063.22;;;6.86;100.00
21574;BME280;10948;48.706;9.258;2023-03-13T03:54:27;97065.19;;;6.96;100.00
21574;BME280;10948;48.706;9.258;2023-03-13T03:56:53;97058.94;;;7.00;100.00
21574;BME280;10948;48.706;9.258;2023-03-13T03:59:18;97066.00;;;7.12;100.00
21574;BME280;10948;48.706;9.258;2023-03-13T04:01:43;97058.25;;;7.26;100.00
21574;BME280;10948;48.706;9.258;2023-03-13T04:04:09;97064.84;;;7.46;100.00
21574;BME280;10948;48.706;9.258;2023-03-13T04:06:34;97065.78;;;7.45;100.00
21574;BME280;10948;48.706;9.258;2023-03-13T04:08:59;97072.06;;;7.41;100.00
21574;BME280;10948;48.706;9.258;2023-03-13T04:11:24;97071.97;;;7.56;100.00
21574;BME280;10948;48.706;9.258;2023-03-13T04:13:50;97071.38;;;7.81;100.00
21574;BME280;10948;48.706;9.258;2023-03-13T04:16:15;97083.94;;;7.87;100.00
21574;BME280;10948;48.706;9.258;2023-03-13T04:18:40;97070.97;;;8.15;100.00
21574;BME280;10948;48.706;9.258;2023-03-13T04:21:05;97062.13;;;8.59;100.00
21574;BME280;10948;48.706;9.258;2023-03-13T04:23:30;97057.13;;;8.56;100.00
21574;BME280;10948;48.706;9.258;2023-03-13T04:25:56;97065.25;;;8.91;100.00
21574;BME280;10948;48.706;9.258;2023-03-13T04:28:21;97052.88;;;8.82;100.00
21574;BME280;10948;48.706;9.258;2023-03-13T04:30:46;97054.16;;;9.01;100.00
21574;BME280;10948;48.706;9.258;2023-03-13T04:33:11;97048.19;;;9.26;100.00
21574;BME280;10948;48.706;9.258;2023-03-13T04:35:36;97048.41;;;9.35;100.00
21574;BME280;10948;48.706;9.258;2023-03-13T04:38:02;97035.16;;;9.52;100.00
21574;BME280;10948;48.706;9.258;2023-03-13T04:40:27;97043.88;;;9.51;100.00
21574;BME280;10948;48.706;9.258;2023-03-13T04:42:52;97037.44;;;9.44;100.00
21574;BME280;10948;48.706;9.258;2023-03-13T04:45:17;97030.56;;;9.43;100.00
21574;BME280;10948;48.706;9.258;2023-03-13T04:47:43;97024.34;;;9.58;100.00
21574;BME280;10948;48.706;9.258;2023-03-13T04:50:09;97028.28;;;9.51;100.00
21574;BME280;10948;48.706;9.258;2023-03-13T04:52:35;97030.56;;;9.68;100.00
21574;BME280;10948;48.706;9.258;2023-03-13T04:55:00;97030.97;;;9.87;100.00
21574;BME280;10948;48.706;9.258;2023-03-13T04:57:25;97030.16;;;9.74;100.00
21574;BME280;10948;48.706;9.258;2023-03-13T04:59:50;97032.00;;;9.60;100.00
21574;BME280;10948;48.706;9.258;2023-03-13T05:02:15;97028.38;;;9.87;100.00
21574;BME280;10948;48.706;9.258;2023-03-13T05:04:41;97032.84;;;9.85;100.00
21574;BME280;10948;48.706;9.258;2023-03-13T05:07:06;97028.59;;;9.84;100.00
21574;BME280;10948;48.706;9.258;2023-03-13T05:09:31;97033.16;;;9.93;100.00
21574;BME280;10948;48.706;9.258;2023-03-13T05:11:56;97032.94;;;9.84;100.00
21574;BME280;10948;48.706;9.258;2023-03-13T05:14:22;97032.84;;;9.85;100.00
21574;BME280;10948;48.706;9.258;2023-03-13T05:16:47;97024.94;;;9.74;100.00
21574;BME280;10948;48.706;9.258;2023-03-13T05:19:12;97010.38;;;10.09;100.00
21574;BME280;10948;48.706;9.258;2023-03-13T05:21:37;97015.28;;;10.14;100.00
21574;BME280;10948;48.706;9.258;2023-03-13T05:24:03;97024.69;;;10.27;100.00
21574;BME280;10948;48.706;9.258;2023-03-13T05:26:28;97021.56;;;10.22;100.00
21574;BME280;10948;48.706;9.258;2023-03-13T05:28:53;97013.19;;;10.42;100.00
21574;BME280;10948;48.706;9.258;2023-03-13T05:31:20;97018.47;;;10.17;100.00
21574;BME280;10948;48.706;9.258;2023-03-13T05:33:46;97011.59;;;10.29;100.00
21574;BME280;10948;48.706;9.258;2023-03-13T05:36:11;97023.03;;;10.26;100.00
21574;BME280;10948;48.706;9.258;2023-03-13T05:38:36;97026.50;;;10.50;100.00
21574;BME280;10948;48.706;9.258;2023-03-13T05:41:01;97020.09;;;10.31;100.00
21574;BME280;10948;48.706;9.258;2023-03-13T05:43:27;97024.59;;;10.52;100.00
21574;BME280;10948;48.706;9.258;2023-03-13T05:45:52;97009.09;;;10.74;100.00
21574;BME280;10948;48.706;9.258;2023-03-13T05:48:17;97020.63;;;10.59;100.00
21574;BME280;10948;48.706;9.258;2023-03-13T05:50:43;97010.94;;;10.61;100.00
21574;BME280;10948;48.706;9.258;2023-03-13T05:53:08;97011.19;;;10.69;100.00
21574;BME280;10948;48.706;9.258;2023-03-13T05:55:34;97017.31;;;10.81;100.00
21574;BME280;10948;48.706;9.258;2023-03-13T05:57:59;97006.03;;;11.03;100.00
21574;BME280;10948;48.706;9.258;2023-03-13T06:00:25;97006.75;;;10.82;100.00
21574;BME280;10948;48.706;9.258;2023-03-13T06:02:50;96999.47;;;10.87;100.00
21574;BME280;10948;48.706;9.258;2023-03-13T06:05:15;96992.44;;;10.77;100.00
21574;BME280;10948;48.706;9.258;2023-03-13T06:07:40;96988.88;;;10.77;100.00
21574;BME280;10948;48.706;9.258;2023-03-13T06:10:05;96992.59;;;10.86;100.00
21574;BME280;10948;48.706;9.258;2023-03-13T06:12:31;96998.03;;;10.83;100.00
21574;BME280;10948;48.706;9.258;2023-03-13T06:14:56;97002.94;;;10.98;100.00
21574;BME280;10948;48.706;9.258;2023-03-13T06:17:22;96992.91;;;11.16;100.00
21574;BME280;10948;48.706;9.258;2023-03-13T06:19:49;97005.72;;;11.19;100.00
21574;BME280;10948;48.706;9.258;2023-03-13T06:22:15;97002.88;;;11.22;100.00
21574;BME280;10948;48.706;9.258;2023-03-13T06:24:40;97005.88;;;11.28;100.00
21574;BME280;10948;48.706;9.258;2023-03-13T06:27:08;96997.00;;;11.31;100.00
21574;BME280;10948;48.706;9.258;2023-03-13T06:29:33;97010.63;;;11.34;100.00
21574;BME280;10948;48.706;9.258;2023-03-13T06:31:59;97013.13;;;11.47;100.00
21574;BME280;10948;48.706;9.258;2023-03-13T06:34:24;97015.25;;;11.42;100.00
21574;BME280;10948;48.706;9.258;2023-03-13T06:36:49;97007.22;;;11.45;100.00
21574;BME280;10948;48.706;9.258;2023-03-13T06:39:14;97009.63;;;11.59;100.00
21574;BME280;10948;48.706;9.258;2023-03-13T06:41:39;97010.91;;;11.53;100.00
21574;BME280;10948;48.706;9.258;2023-03-13T06:44:05;97001.38;;;11.76;100.00
21574;BME280;10948;48.706;9.258;2023-03-13T06:46:30;97008.91;;;11.68;100.00
21574;BME280;10948;48.706;9.258;2023-03-13T06:48:58;97000.88;;;11.82;100.00
21574;BME280;10948;48.706;9.258;2023-03-13T06:51:24;96995.66;;;11.82;100.00
21574;BME280;10948;48.706;9.258;2023-03-13T06:53:50;96996.13;;;11.87;100.00
21574;BME280;10948;48.706;9.258;2023-03-13T06:56:17;96998.50;;;11.79;100.00
21574;BME280;10948;48.706;9.258;2023-03-13T06:58:47;96995.66;;;11.82;100.00
21574;BME280;10948;48.706;9.258;2023-03-13T07:01:14;97003.25;;;11.96;100.00
21574;BME280;10948;48.706;9.258;2023-03-13T07:03:40;96995.66;;;11.82;100.00
21574;BME280;10948;48.706;9.258;2023-03-13T07:06:05;97005.00;;;11.84;100.00
21574;BME280;10948;48.706;9.258;2023-03-13T07:08:31;97014.38;;;11.87;100.00
21574;BME280;10948;48.706;9.258;2023-03-13T07:10:57;97012.25;;;11.92;100.00
21574;BME280;10948;48.706;9.258;2023-03-13T07:13:23;97026.84;;;11.94;100.00
21574;BME280;10948;48.706;9.258;2023-03-13T07:15:48;97032.66;;;11.98;100.00
21574;BME280;10948;48.706;9.258;2023-03-13T07:18:14;97023.28;;;11.95;100.00
21574;BME280;10948;48.706;9.258;2023-03-13T07:20:39;97018.66;;;11.88;100.00
21574;BME280;10948;48.706;9.258;2023-03-13T07:23:04;97036.81;;;12.00;100.00
21574;BME280;10948;48.706;9.258;2023-03-13T07:25:29;97039.25;;;12.02;100.00
21574;BME280;10948;48.706;9.258;2023-03-13T07:27:54;97026.00;;;11.94;100.00
21574;BME280;10948;48.706;9.258;2023-03-13T07:30:20;97017.22;;;11.95;100.00
21574;BME280;10948;48.706;9.258;2023-03-13T07:32:46;97011.75;;;12.20;100.00
21574;BME280;10948;48.706;9.258;2023-03-13T07:35:11;97014.38;;;12.31;100.00
21574;BME280;10948;48.706;9.258;2023-03-13T07:37:36;97011.38;;;12.35;100.00
21574;BME280;10948;48.706;9.258;2023-03-13T07:40:01;97009.63;;;12.25;100.00
21574;BME280;10948;48.706;9.258;2023-03-13T07:42:28;97007.72;;;12.38;100.00
21574;BME280;10948;48.706;9.258;2023-03-13T07:45:02;96995.00;;;12.44;100.00
21574;BME280;10948;48.706;9.258;2023-03-13T07:47:28;96990.13;;;12.51;100.00
21574;BME280;10948;48.706;9.258;2023-03-13T07:49:53;96999.03;;;12.37;100.00
21574;BME280;10948;48.706;9.258;2023-03-13T07:52:18;96994.88;;;12.57;100.00
21574;BME280;10948;48.706;9.258;2023-03-13T07:54:44;96986.47;;;12.74;100.00
21574;BME280;10948;48.706;9.258;2023-03-13T07:57:09;96985.41;;;12.76;100.00
21574;BME280;10948;48.706;9.258;2023-03-13T07:59:35;96984.38;;;12.68;100.00
21574;BME280;10948;48.706;9.258;2023-03-13T08:02:00;96980.09;;;12.67;100.00
21574;BME280;10948;48.706;9.258;2023-03-13T08:04:26;96981.25;;;12.74;100.00
21574;BME280;10948;48.706;9.258;2023-03-13T08:06:51;96989.34;;;12.71;100.00
21574;BME280;10948;48.706;9.258;2023-03-13T08:09:18;96987.66;;;12.81;100.00
21574;BME280;10948;48.706;9.258;2023-03-13T08:11:43;96973.41;;;12.85;100.00
21574;BME280;10948;48.706;9.258;2023-03-13T08:14:09;96965.56;;;12.96;100.00
21574;BME280;10948;48.706;9.258;2023-03-13T08:16:34;96949.81;;;13.07;100.00
21574;BME280;10948;48.706;9.258;2023-03-13T08:19:02;96955.50;;;13.12;100.00
21574;BME280;10948;48.706;9.258;2023-03-13T08:21:34;96939.16;;;12.99;100.00
21574;BME280;10948;48.706;9.258;2023-03-13T08:24:00;96926.69;;;13.23;100.00
21574;BME280;10948;48.706;9.258;2023-03-13T08:26:28;96911.94;;;13.42;100.00
21574;BME280;10948;48.706;9.258;2023-03-13T08:28:55;96907.59;;;13.62;100.00
21574;BME280;10948;48.706;9.258;2023-03-13T08:31:24;96906.00;;;14.10;100.00
21574;BME280;10948;48.706;9.258;2023-03-13T08:33:50;96905.94;;;14.59;100.00
21574;BME280;10948;48.706;9.258;2023-03-13T08:36:17;96910.34;;;14.49;100.00
21574;BME280;10948;48.706;9.258;2023-03-13T08:38:42;96904.97;;;14.79;100.00
21574;BME280;10948;48.706;9.258;2023-03-13T08:41:12;96920.56;;;14.90;100.00
21574;BME280;10948;48.706;9.258;2023-03-13T08:43:38;96931.84;;;14.71;100.00
21574;BME280;10948;48.706;9.258;2023-03-13T08:46:03;96933.09;;;14.86;100.00
21574;BME280;10948;48.706;9.258;2023-03-13T08:48:28;96927.19;;;14.56;100.00
21574;BME280;10948;48.706;9.258;2023-03-13T08:51:07;96909.38;;;14.50;100.00
21574;BME280;10948;48.706;9.258;2023-03-13T08:53:33;96921.38;;;14.43;100.00
21574;BME280;10948;48.706;9.258;2023-03-13T08:55:58;96917.78;;;14.44;100.00
21574;BME280;10948;48.706;9.258;2023-03-13T08:58:24;96918.03;;;14.41;100.00
21574;BME280;10948;48.706;9.258;2023-03-13T09:00:49;96934.72;;;14.40;100.00
21574;BME280;10948;48.706;9.258;2023-03-13T09:03:14;96928.94;;;14.46;100.00
21574;BME280;10948;48.706;9.258;2023-03-13T09:05:41;96920.66;;;14.50;100.00
21574;BME280;10948;48.706;9.258;2023-03-13T09:08:06;96933.91;;;14.68;100.00
21574;BME280;10948;48.706;9.258;2023-03-13T09:10:32;96923.59;;;14.66;100.00
21574;BME280;10948;48.706;9.258;2023-03-13T09:12:57;96928.28;;;14.72;100.00
21574;BME280;10948;48.706;9.258;2023-03-13T09:15:23;96923.84;;;14.73;100.00
21574;BME280;10948;48.706;9.258;2023-03-13T09:17:48;96924.97;;;14.80;100.00
21574;BME280;10948;48.706;9.258;2023-03-13T09:20:13;96932.41;;;14.75;100.00
21574;BME280;10948;48.706;9.258;2023-03-13T09:22:38;96926.59;;;14.81;100.00
21574;BME280;10948;48.706;9.258;2023-03-13T09:25:04;96934.34;;;14.73;100.00
21574;BME280;10948;48.706;9.258;2023-03-13T09:27:29;96938.47;;;14.85;100.00
21574;BME280;10948;48.706;9.258;2023-03-13T09:29:54;96935.00;;;14.94;100.00
21574;BME280;10948;48.706;9.258;2023-03-13T09:32:20;96940.13;;;15.05;100.00
21574;BME280;10948;48.706;9.258;2023-03-13T09:34:45;96932.66;;;15.19;100.00
21574;BME280;10948;48.706;9.258;2023-03-13T09:37:11;96927.25;;;15.21;100.00
21574;BME280;10948;48.706;9.258;2023-03-13T09:39:36;96929.59;;;15.43;100.00
21574;BME280;10948;48.706;9.258;2023-03-13T09:44:30;96929.72;;;15.87;100.00
21574;BME280;10948;48.706;9.258;2023-03-13T09:47:03;96937.78;;;15.76;100.00
21574;BME280;10948;48.706;9.258;2023-03-13T09:49:31;96949.88;;;15.87;99.70
21574;BME280;10948;48.706;9.258;2023-03-13T09:54:49;96947.53;;;16.20;98.70
21574;BME280;10948;48.706;9.258;2023-03-13T09:57:21;96945.06;;;16.36;96.47
21574;BME280;10948;48.706;9.258;2023-03-13T10:05:05;96931.44;;;17.88;83.55
21574;BME280;10948;48.706;9.258;2023-03-13T10:07:31;96931.09;;;18.74;79.23
21574;BME280;10948;48.706;9.258;2023-03-13T10:10:00;96927.16;;;19.18;75.39
21574;BME280;10948;48.706;9.258;2023-03-13T10:12:30;96911.00;;;20.77;67.67
21574;BME280;10948;48.706;9.258;2023-03-13T10:15:11;96919.59;;;21.24;64.24
21574;BME280;10948;48.706;9.258;2023-03-13T10:17:41;96902.44;;;22.29;59.77
21574;BME280;10948;48.706;9.258;2023-03-13T10:20:25;96907.84;;;22.71;58.17
21574;BME280;10948;48.706;9.258;2023-03-13T10:22:54;96909.69;;;21.77;59.18
21574;BME280;10948;48.706;9.258;2023-03-13T10:25:35;96907.03;;;22.06;61.46
21574;BME280;10948;48.706;9.258;2023-03-13T10:28:02;96893.84;;;22.98;55.48
21574;BME280;10948;48.706;9.258;2023-03-13T10:30:32;96884.56;;;22.02;58.75
21574;BME280;10948;48.706;9.258;2023-03-13T10:35:30;96879.41;;;23.83;51.74
21574;BME280;10948;48.706;9.258;2023-03-13T10:38:11;96876.78;;;24.17;53.31
21574;BME280;10948;48.706;9.258;2023-03-13T10:40:37;96879.34;;;23.70;51.53
21574;BME280;10948;48.706;9.258;2023-03-13T10:43:16;96879.00;;;20.94;58.38
21574;BME280;10948;48.706;9.258;2023-03-13T10:45:42;96879.31;;;19.61;64.24
21574;BME280;10948;48.706;9.258;2023-03-13T10:50:36;96875.03;;;19.60;67.51
21574;BME280;10948;48.706;9.258;2023-03-13T10:55:45;96854.97;;;19.27;68.16
21574;BME280;10948;48.706;9.258;2023-03-13T10:58:22;96846.84;;;19.45;67.84
21574;BME280;10948;48.706;9.258;2023-03-13T11:00:48;96854.28;;;19.17;68.17
21574;BME280;10948;48.706;9.258;2023-03-13T11:03:17;96843.94;;;18.92;69.19
21574;BME280;10948;48.706;9.258;2023-03-13T11:05:43;96836.03;;;19.70;67.56
21574;BME280;10948;48.706;9.258;2023-03-13T11:10:37;96824.00;;;20.59;61.90
21574;BME280;10948;48.706;9.258;2023-03-13T11:13:24;96826.13;;;20.03;63.94
21574;BME280;10948;48.706;9.258;2023-03-13T11:15:52;96815.66;;;19.48;67.12
21574;BME280;10948;48.706;9.258;2023-03-13T11:20:58;96815.66;;;19.48;67.06
21574;BME280;10948;48.706;9.258;2023-03-13T11:23:29;96811.69;;;21.11;62.28
21574;BME280;10948;48.706;9.258;2023-03-13T11:26:01;96815.44;;;20.57;63.01
21574;BME280;10948;48.706;9.258;2023-03-13T11:31:29;96799.69;;;23.83;53.45
21574;BME280;10948;48.706;9.258;2023-03-13T11:56:57;96717.03;;;26.30;47.24
21574;BME280;10948;48.706;9.258;2023-03-13T12:01:53;96699.78;;;25.38;48.05
21574;BME280;10948;48.706;9.258;2023-03-13T12:06:46;96689.97;;;25.89;46.69
21574;BME280;10948;48.706;9.258;2023-03-13T12:09:15;96676.88;;;25.24;47.73
21574;BME280;10948;48.706;9.258;2023-03-13T12:11:56;96678.56;;;26.13;46.93
21574;BME280;10948;48.706;9.258;2023-03-13T12:14:32;96664.13;;;25.83;46.43
21574;BME280;10948;48.706;9.258;2023-03-13T12:17:07;96657.63;;;26.41;47.15
21574;BME280;10948;48.706;9.258;2023-03-13T12:19:36;96642.31;;;26.30;46.45
21574;BME280;10948;48.706;9.258;2023-03-13T12:25:13;96626.88;;;25.26;46.87
21574;BME280;10948;48.706;9.258;2023-03-13T12:27:44;96624.25;;;26.32;46.71
21574;BME280;10948;48.706;9.258;2023-03-13T12:30:18;96609.88;;;26.33;45.58
21574;BME280;10948;48.706;9.258;2023-03-13T12:32:52;96618.13;;;24.99;47.96
21574;BME280;10948;48.706;9.258;2023-03-13T12:35:22;96603.69;;;26.08;47.71
21574;BME280;10948;48.706;9.258;2023-03-13T13:01:54;96517.25;;;25.16;45.88
21574;BME280;10948;48.706;9.258;2023-03-13T13:04:25;96510.38;;;25.70;46.02
21574;BME280;10948;48.706;9.258;2023-03-13T13:07:33;96508.06;;;24.48;45.81
21574;BME280;10948;48.706;9.258;2023-03-13T13:09:57;96502.94;;;24.60;47.24
21574;BME280;10948;48.706;9.258;2023-03-13T13:12:24;96495.91;;;25.29;45.92
21574;BME280;10948;48.706;9.258;2023-03-13T13:17:18;96488.31;;;24.82;46.27
21574;BME280;10948;48.706;9.258;2023-03-13T13:19:46;96469.75;;;25.99;45.50
21574;BME280;10948;48.706;9.258;2023-03-13T13:24:58;96457.16;;;24.89;45.91
21574;BME280;10948;48.706;9.258;2023-03-13T13:32:48;96452.13;;;23.59;50.73
21574;BME280;10948;48.706;9.258;2023-03-13T13:37:39;96445.34;;;22.58;51.92
21574;BME280;10948;48.706;9.258;2023-03-13T13:43:00;96438.03;;;22.66;53.42
21574;BME280;10948;48.706;9.258;2023-03-13T13:45:30;96431.13;;;22.91;52.56
21574;BME280;10948;48.706;9.258;2023-03-13T13:48:15;96421.97;;;22.87;52.88
21574;BME280;10948;48.706;9.258;2023-03-13T13:55:56;96403.41;;;23.00;52.53
21574;BME280;10948;48.706;9.258;2023-03-13T13:58:27;96396.50;;;23.19;52.12
21574;BME280;10948;48.706;9.258;2023-03-13T14:01:00;96394.88;;;23.24;51.29
21574;BME280;10948;48.706;9.258;2023-03-13T14:05:53;96376.00;;;22.87;52.05
21574;BME280;10948;48.706;9.258;2023-03-13T14:08:22;96373.41;;;22.33;53.80
21574;BME280;10948;48.706;9.258;2023-03-13T14:11:24;96368.91;;;22.34;53.96
21574;BME280;10948;48.706;9.258;2023-03-13T14:13:43;96370.63;;;22.54;52.53
21574;BME280;10948;48.706;9.258;2023-03-13T14:16:19;96355.28;;;22.43;52.88
21574;BME280;10948;48.706;9.258;2023-03-13T14:18:45;96360.84;;;22.55;52.55
21574;BME280;10948;48.706;9.258;2023-03-13T14:21:11;96360.25;;;22.59;52.14
21574;BME280;10948;48.706;9.258;2023-03-13T14:23:42;96365.88;;;22.37;52.30
21574;BME280;10948;48.706;9.258;2023-03-13T14:26:24;96352.47;;;22.04;51.94
21574;BME280;10948;48.706;9.258;2023-03-13T14:28:54;96362.53;;;22.22;52.70
21574;BME280;10948;48.706;9.258;2023-03-13T14:31:29;96348.09;;;22.37;52.86
21574;BME280;10948;48.706;9.258;2023-03-13T14:33:55;96341.69;;;22.59;52.80
21574;BME280;10948;48.706;9.258;2023-03-13T14:36:21;96332.13;;;23.10;51.37
21574;BME280;10948;48.706;9.258;2023-03-13T14:38:50;96321.31;;;22.66;51.77
21574;BME280;10948;48.706;9.258;2023-03-13T14:41:23;96311.91;;;22.83;52.46
21574;BME280;10948;48.706;9.258;2023-03-13T14:43:51;96315.13;;;22.53;51.81
21574;BME280;10948;48.706;9.258;2023-03-13T14:46:26;96316.63;;;22.94;52.01
21574;BME280;10948;48.706;9.258;2023-03-13T14:48:53;96302.94;;;23.36;50.07
21574;BME280;10948;48.706;9.258;2023-03-13T14:51:20;96287.81;;;23.43;48.41